Time;durP1;ratioP1;P1;durP2;ratioP2;P2;SDS_P1;SDS_P2;PMS_P1;PMS_P2;Temp;Humidity;BMP_temperature;BMP_pressure;BME280_temperature;BME280_humidity;BME280_pressure;Samples;Min_cycle;Max_cycle;Signal;HPM_P1;HPM_P2
2021/10/07 00:01:13;;;;;;;1.87;1.77;;;12.90;86.30;;;;;;5040226;28;20960;-42
2021/10/07 00:03:52;;;;;;;1.63;1.53;;;12.90;86.30;;;;;;5030966;28;20470;-42
2021/10/07 00:06:19;;;;;;;1.90;1.80;;;12.90;86.30;;;;;;5044607;28;20540;-42
2021/10/07 00:08:45;;;;;;;1.87;1.37;;;12.90;86.40;;;;;;5044938;28;20458;-42
2021/10/07 00:11:12;;;;;;;1.70;1.40;;;12.90;86.40;;;;;;5043778;28;20490;-42
2021/10/07 00:13:39;;;;;;;1.50;1.13;;;12.90;86.40;;;;;;5040270;28;20574;-42
2021/10/07 00:16:07;;;;;;;1.60;1.50;;;12.90;86.40;;;;;;5041800;28;21287;-42
2021/10/07 00:18:37;;;;;;;1.23;1.13;;;12.90;86.30;;;;;;5043131;28;20450;-42
2021/10/07 00:21:05;;;;;;;1.87;1.77;;;12.90;86.30;;;;;;5026105;28;20831;-42
2021/10/07 00:23:37;;;;;;;2.60;1.80;;;12.80;86.40;;;;;;5039669;28;20822;-42
2021/10/07 00:26:04;;;;;;;1.93;1.73;;;12.90;86.40;;;;;;5041735;28;20454;-42
2021/10/07 00:28:32;;;;;;;1.67;1.57;;;12.90;86.40;;;;;;5038375;28;20466;-42
2021/10/07 00:31:02;;;;;;;2.13;1.90;;;12.80;86.30;;;;;;5028128;28;20487;-41
2021/10/07 00:36:35;;;;;;;2.40;1.70;;;12.80;86.30;;;;;;5022131;28;20825;-41
2021/10/07 00:39:04;;;;;;;1.80;1.70;;;12.80;86.20;;;;;;5043644;28;20474;-41
2021/10/07 00:41:31;;;;;;;3.53;1.57;;;12.80;86.30;;;;;;5040883;28;20629;-41
2021/10/07 00:44:03;;;;;;;1.83;1.70;;;12.80;86.30;;;;;;5022750;28;20451;-42
2021/10/07 00:46:30;;;;;;;2.27;1.60;;;12.80;86.30;;;;;;5040005;28;20975;-42
2021/10/07 00:48:59;;;;;;;1.67;1.43;;;12.80;86.40;;;;;;5043655;28;20820;-42
2021/10/07 00:51:28;;;;;;;1.60;1.50;;;12.80;86.40;;;;;;5041803;28;20486;-42
2021/10/07 00:53:55;;;;;;;2.80;1.90;;;12.80;86.50;;;;;;5041111;28;20459;-42
2021/10/07 00:56:21;;;;;;;1.40;1.30;;;12.70;86.50;;;;;;5043264;28;20465;-42
2021/10/07 00:58:48;;;;;;;1.67;1.57;;;12.80;86.50;;;;;;5039246;28;20978;-42
2021/10/07 01:01:15;;;;;;;2.33;1.60;;;12.80;86.50;;;;;;5040947;28;20459;-42
2021/10/07 01:03:42;;;;;;;3.00;1.90;;;12.70;86.60;;;;;;5044604;28;20447;-42
2021/10/07 01:06:09;;;;;;;4.00;1.80;;;12.70;86.60;;;;;;5041011;28;20469;-42
2021/10/07 01:08:36;;;;;;;2.20;1.80;;;12.70;86.70;;;;;;5040527;28;20455;-42
2021/10/07 01:11:03;;;;;;;2.23;1.80;;;12.80;86.50;;;;;;5038261;28;20889;-42
2021/10/07 01:13:29;;;;;;;3.60;1.77;;;12.70;86.60;;;;;;5038915;28;20478;-42
2021/10/07 01:16:03;;;;;;;3.00;2.70;;;12.70;86.60;;;;;;5039223;28;20820;-42
2021/10/07 01:18:29;;;;;;;2.47;1.90;;;12.70;86.80;;;;;;5024009;28;20821;-42
2021/10/07 01:20:56;;;;;;;2.57;1.90;;;12.70;86.80;;;;;;5039582;28;20994;-42
2021/10/07 01:23:23;;;;;;;2.93;2.63;;;12.70;87.00;;;;;;5039916;28;20471;-42
2021/10/07 01:25:50;;;;;;;3.83;2.20;;;12.70;86.80;;;;;;5040933;28;20451;-42
2021/10/07 01:28:17;;;;;;;3.50;2.37;;;12.70;86.80;;;;;;5040193;28;20497;-42
2021/10/07 01:30:45;;;;;;;2.57;2.37;;;12.70;86.80;;;;;;5044285;28;20483;-42
2021/10/07 01:33:15;;;;;;;2.50;2.30;;;12.70;86.80;;;;;;5040842;28;20456;-42
2021/10/07 01:35:41;;;;;;;3.07;2.63;;;12.70;86.90;;;;;;5039944;28;20517;-42
2021/10/07 01:38:08;;;;;;;3.67;2.40;;;12.70;86.70;;;;;;5037890;28;20824;-42
2021/10/07 01:40:35;;;;;;;2.37;2.17;;;12.80;86.60;;;;;;5045308;28;20470;-42
2021/10/07 01:43:02;;;;;;;3.90;2.00;;;12.70;86.60;;;;;;5042763;28;20968;-42
2021/10/07 01:45:28;;;;;;;2.43;2.20;;;12.80;86.70;;;;;;5041484;28;20463;-42
2021/10/07 01:47:55;;;;;;;2.77;1.97;;;12.80;86.50;;;;;;5038138;28;20470;-42
2021/10/07 01:50:23;;;;;;;3.30;2.63;;;12.80;86.60;;;;;;5027075;28;20482;-42
2021/10/07 01:52:49;;;;;;;2.40;2.20;;;12.70;86.60;;;;;;5043689;28;20447;-42
2021/10/07 01:55:16;;;;;;;2.70;2.50;;;12.80;86.60;;;;;;5041500;28;20463;-42
2021/10/07 01:57:43;;;;;;;2.83;2.63;;;12.80;86.60;;;;;;5028880;28;20987;-42
2021/10/07 02:00:10;;;;;;;4.47;2.77;;;12.80;86.60;;;;;;5040759;28;20454;-42
2021/10/07 02:02:37;;;;;;;2.80;2.30;;;12.70;86.60;;;;;;5010499;28;20462;-42
2021/10/07 02:05:06;;;;;;;3.10;2.90;;;12.70;86.70;;;;;;5039615;28;20467;-42
2021/10/07 02:07:32;;;;;;;3.10;2.43;;;12.70;86.70;;;;;;5041090;28;20455;-42
2021/10/07 02:09:59;;;;;;;3.30;2.90;;;12.70;86.80;;;;;;5041994;28;20491;-42
2021/10/07 02:12:27;;;;;;;4.20;2.70;;;12.70;86.80;;;;;;5034857;28;20454;-42
2021/10/07 02:14:53;;;;;;;3.47;2.50;;;12.70;86.80;;;;;;5038418;28;20853;-42
2021/10/07 02:17:20;;;;;;;6.00;3.00;;;12.70;86.90;;;;;;5038864;28;20498;-42
2021/10/07 02:19:47;;;;;;;3.33;3.13;;;12.70;86.90;;;;;;5042465;28;20490;-42
2021/10/07 02:22:13;;;;;;;3.30;2.63;;;12.70;86.90;;;;;;5049270;28;20811;-42
2021/10/07 02:24:40;;;;;;;2.77;2.57;;;12.70;86.90;;;;;;5044942;28;20466;-42
2021/10/07 02:27:07;;;;;;;6.47;4.50;;;12.70;87.10;;;;;;5027293;28;20940;-42
2021/10/07 02:29:34;;;;;;;4.43;3.03;;;12.70;87.00;;;;;;5045553;28;20468;-42
2021/10/07 02:32:00;;;;;;;7.03;3.53;;;12.70;86.90;;;;;;5042553;28;20458;-42
2021/10/07 02:34:27;;;;;;;4.70;3.90;;;12.70;86.90;;;;;;5041709;28;20674;-42
2021/10/07 02:36:54;;;;;;;6.90;4.97;;;12.70;87.00;;;;;;5043819;28;20447;-42
2021/10/07 02:39:20;;;;;;;5.87;5.27;;;12.70;87.10;;;;;;5043869;28;20469;-42
2021/10/07 02:41:47;;;;;;;5.13;3.73;;;12.70;87.20;;;;;;5044726;28;20462;-42
2021/10/07 02:44:14;;;;;;;4.27;3.87;;;12.70;87.20;;;;;;5044691;28;20464;-42
2021/10/07 02:46:41;;;;;;;7.97;4.73;;;12.70;87.30;;;;;;5047270;28;20480;-42
2021/10/07 02:49:08;;;;;;;4.23;3.83;;;12.70;87.30;;;;;;5044954;28;20469;-42
2021/10/07 02:51:34;;;;;;;3.60;3.10;;;12.70;87.40;;;;;;5043576;28;21527;-42
2021/10/07 02:54:01;;;;;;;5.40;3.80;;;12.70;87.50;;;;;;5043018;28;20460;-45
2021/10/07 02:56:28;;;;;;;5.60;4.00;;;12.70;87.50;;;;;;5049209;28;20841;-44
2021/10/07 02:58:55;;;;;;;5.13;3.73;;;12.70;87.50;;;;;;5041615;28;20474;-44
2021/10/07 03:01:23;;;;;;;4.50;3.90;;;12.70;87.50;;;;;;5045242;28;20842;-44
2021/10/07 03:03:50;;;;;;;5.80;4.20;;;12.70;87.50;;;;;;5048288;28;20512;-44
2021/10/07 03:06:18;;;;;;;4.70;4.23;;;12.70;87.60;;;;;;5042819;28;20493;-44
2021/10/07 03:08:44;;;;;;;5.03;4.53;;;12.70;87.50;;;;;;5045228;28;21040;-44
2021/10/07 03:11:11;;;;;;;5.53;4.20;;;12.70;87.60;;;;;;5040969;28;20509;-44
2021/10/07 03:13:38;;;;;;;4.23;3.83;;;12.70;87.60;;;;;;5030097;28;20727;-44
2021/10/07 03:16:05;;;;;;;5.33;4.27;;;12.70;87.70;;;;;;5042759;28;20502;-44
2021/10/07 03:18:32;;;;;;;3.90;3.50;;;12.70;87.70;;;;;;5041749;28;20447;-44
2021/10/07 03:20:58;;;;;;;4.00;3.60;;;12.70;87.60;;;;;;5026872;28;20469;-44
2021/10/07 03:23:25;;;;;;;5.63;3.60;;;12.70;87.70;;;;;;5044073;28;20462;-44
2021/10/07 03:25:52;;;;;;;5.23;3.70;;;12.70;87.70;;;;;;5041479;28;20454;-44
2021/10/07 03:28:19;;;;;;;5.67;4.80;;;12.70;87.80;;;;;;5046059;28;20459;-44
2021/10/07 03:30:45;;;;;;;4.80;4.40;;;12.70;87.80;;;;;;5043673;28;20490;-44
2021/10/07 03:33:16;;;;;;;4.83;3.50;;;12.70;87.80;;;;;;5032791;28;20558;-44
2021/10/07 03:35:43;;;;;;;4.90;4.10;;;12.70;87.80;;;;;;5041519;28;20465;-44
2021/10/07 03:38:09;;;;;;;8.47;4.40;;;12.70;87.80;;;;;;5041138;28;20455;-43
2021/10/07 03:40:36;;;;;;;6.23;4.20;;;12.70;87.80;;;;;;5039789;28;20465;-44
2021/10/07 03:43:03;;;;;;;5.10;4.07;;;12.70;87.80;;;;;;5042494;28;20471;-44
2021/10/07 03:45:30;;;;;;;5.80;4.73;;;12.70;87.80;;;;;;5041169;28;20539;-44
2021/10/07 03:47:57;;;;;;;6.00;4.60;;;12.70;87.80;;;;;;5023995;28;20461;-44
2021/10/07 03:50:24;;;;;;;5.57;4.17;;;12.70;87.80;;;;;;5038710;28;20523;-44
2021/10/07 03:52:51;;;;;;;6.80;3.77;;;12.70;87.90;;;;;;5043189;28;20460;-44
2021/10/07 03:55:17;;;;;;;5.87;3.70;;;12.60;87.90;;;;;;5042911;28;20454;-44
2021/10/07 03:57:44;;;;;;;8.03;4.30;;;12.70;87.80;;;;;;5040661;28;20990;-44
2021/10/07 04:00:11;;;;;;;5.30;4.00;;;12.70;87.80;;;;;;5045665;28;20968;-44
2021/10/07 04:02:38;;;;;;;5.37;4.87;;;12.70;87.90;;;;;;5030987;28;20455;-44
2021/10/07 04:05:05;;;;;;;8.70;5.20;;;12.70;87.90;;;;;;5043036;28;20790;-44
2021/10/07 04:07:32;;;;;;;6.67;4.97;;;12.70;88.00;;;;;;5041550;28;20451;-44
2021/10/07 04:09:59;;;;;;;5.10;4.30;;;12.70;88.10;;;;;;5044237;28;20451;-44
2021/10/07 04:12:26;;;;;;;5.57;4.47;;;12.70;88.00;;;;;;5030911;28;20463;-44
2021/10/07 04:14:53;;;;;;;8.10;4.80;;;12.70;88.10;;;;;;5041299;28;21017;-44
2021/10/07 04:17:19;;;;;;;5.73;5.00;;;12.70;88.10;;;;;;5037446;28;20455;-44
2021/10/07 04:19:46;;;;;;;5.90;4.40;;;12.70;88.10;;;;;;5043313;28;20848;-44
2021/10/07 04:22:13;;;;;;;5.53;4.73;;;12.60;88.00;;;;;;5046244;28;20493;-44
2021/10/07 04:24:40;;;;;;;4.77;4.20;;;12.70;88.10;;;;;;5026914;28;20821;-44
2021/10/07 04:27:06;;;;;;;5.00;4.50;;;12.60;88.20;;;;;;5042245;28;20473;-44
2021/10/07 04:29:33;;;;;;;5.13;4.23;;;12.60;88.30;;;;;;5041895;28;21021;-44
2021/10/07 04:32:00;;;;;;;6.17;4.90;;;12.60;88.30;;;;;;5044646;28;20935;-44
2021/10/07 04:34:27;;;;;;;5.73;5.07;;;12.70;88.30;;;;;;5044545;28;20454;-44
2021/10/07 04:36:53;;;;;;;7.10;5.50;;;12.70;88.40;;;;;;5042859;28;20470;-44
2021/10/07 04:39:20;;;;;;;9.23;5.27;;;12.70;88.40;;;;;;5041867;28;20461;-44
2021/10/07 04:41:47;;;;;;;6.53;5.60;;;12.70;88.40;;;;;;5042074;28;20475;-44
2021/10/07 04:44:13;;;;;;;7.77;5.03;;;12.70;88.40;;;;;;5028605;28;20903;-44
2021/10/07 04:46:40;;;;;;;6.37;5.17;;;12.70;88.50;;;;;;5044031;28;20458;-44
2021/10/07 04:49:07;;;;;;;7.27;5.27;;;12.70;88.40;;;;;;5042854;28;20958;-44
2021/10/07 04:51:34;;;;;;;6.90;5.60;;;12.70;88.50;;;;;;5043117;28;20498;-44
2021/10/07 04:54:00;;;;;;;6.53;5.23;;;12.70;88.60;;;;;;5027831;28;20461;-44
2021/10/07 04:56:27;;;;;;;7.13;5.60;;;12.70;88.70;;;;;;5041564;28;20467;-44
2021/10/07 04:58:54;;;;;;;7.33;5.57;;;12.70;88.80;;;;;;5042981;28;20971;-44
2021/10/07 05:01:21;;;;;;;7.00;5.63;;;12.70;88.80;;;;;;5025266;28;20886;-44
2021/10/07 05:03:49;;;;;;;6.13;5.53;;;12.70;88.80;;;;;;5040749;28;20494;-44
2021/10/07 05:06:17;;;;;;;9.33;5.57;;;12.70;88.90;;;;;;5042239;28;21570;-44
2021/10/07 05:08:44;;;;;;;9.80;6.40;;;12.70;88.80;;;;;;5036386;28;20922;-44
2021/10/07 05:11:10;;;;;;;7.30;5.27;;;12.70;88.80;;;;;;5042852;28;20492;-44
2021/10/07 05:13:37;;;;;;;7.10;5.50;;;12.70;88.80;;;;;;5041137;28;20470;-44
2021/10/07 05:16:04;;;;;;;8.07;5.80;;;12.70;88.90;;;;;;5024948;28;20485;-44
2021/10/07 05:18:31;;;;;;;8.20;5.33;;;12.70;88.90;;;;;;5024055;28;20614;-44
2021/10/07 05:20:58;;;;;;;6.97;5.40;;;12.70;88.80;;;;;;5042627;28;20463;-44
2021/10/07 05:23:24;;;;;;;7.10;5.37;;;12.60;89.10;;;;;;5039919;28;20474;-44
2021/10/07 05:25:51;;;;;;;7.60;6.37;;;12.70;89.20;;;;;;5042604;28;20821;-44
2021/10/07 05:28:18;;;;;;;8.10;6.50;;;12.70;89.10;;;;;;5040529;28;20490;-44
2021/10/07 05:30:45;;;;;;;8.53;6.47;;;12.70;89.10;;;;;;5043213;28;20512;-44
2021/10/07 05:33:12;;;;;;;9.70;6.50;;;12.70;89.10;;;;;;5041255;28;20462;-44
2021/10/07 05:35:38;;;;;;;10.37;7.43;;;12.70;89.20;;;;;;5040024;28;20455;-44
2021/10/07 05:38:05;;;;;;;9.63;6.57;;;12.60;89.10;;;;;;5039272;28;20967;-44
2021/10/07 05:40:32;;;;;;;10.00;6.83;;;12.60;89.10;;;;;;5043386;28;20458;-44
2021/10/07 05:42:58;;;;;;;7.40;6.00;;;12.60;89.20;;;;;;5042290;28;20906;-44
2021/10/07 05:45:25;;;;;;;9.07;7.10;;;12.60;89.30;;;;;;5037538;28;21021;-44
2021/10/07 05:47:52;;;;;;;8.07;6.00;;;12.60;89.30;;;;;;5039086;28;20451;-44
2021/10/07 05:50:19;;;;;;;8.47;6.63;;;12.60;89.40;;;;;;5035827;28;20463;-44
2021/10/07 05:52:45;;;;;;;8.70;5.90;;;12.60;89.40;;;;;;5036757;28;20988;-44
2021/10/07 05:55:17;;;;;;;11.10;5.43;;;12.70;89.40;;;;;;5043437;28;20458;-44
2021/10/07 05:57:43;;;;;;;7.37;6.47;;;12.70;89.30;;;;;;5046883;28;20772;-44
2021/10/07 06:00:11;;;;;;;8.33;7.53;;;12.70;89.20;;;;;;5045960;28;20458;-44
2021/10/07 06:02:38;;;;;;;11.80;6.50;;;12.70;89.30;;;;;;5043486;28;20464;-44
2021/10/07 06:05:07;;;;;;;8.63;6.17;;;12.70;89.30;;;;;;5025006;28;20492;-44
2021/10/07 06:07:34;;;;;;;8.13;5.60;;;12.60;89.30;;;;;;5045928;28;20462;-44
2021/10/07 06:10:00;;;;;;;8.37;5.43;;;12.60;89.40;;;;;;5045638;28;20455;-44
2021/10/07 06:12:27;;;;;;;7.70;5.60;;;12.70;89.40;;;;;;5048588;28;20490;-44
2021/10/07 06:14:54;;;;;;;10.83;6.73;;;12.70;89.40;;;;;;5045521;28;20551;-44
2021/10/07 06:17:21;;;;;;;7.67;6.60;;;12.70;89.30;;;;;;5047625;28;20459;-43
2021/10/07 06:19:50;;;;;;;9.33;6.63;;;12.70;89.20;;;;;;5032361;28;20896;-44
2021/10/07 06:22:17;;;;;;;7.53;6.70;;;12.70;89.30;;;;;;5046995;28;20462;-44
2021/10/07 06:24:43;;;;;;;6.80;5.10;;;12.70;89.40;;;;;;5045332;28;20472;-44
2021/10/07 06:27:11;;;;;;;8.70;5.87;;;12.70;89.40;;;;;;5044091;28;20446;-44
2021/10/07 06:29:38;;;;;;;9.13;6.30;;;12.70;89.40;;;;;;5042260;28;20971;-44
2021/10/07 06:32:05;;;;;;;12.00;7.30;;;12.70;89.40;;;;;;5033594;28;20502;-44
2021/10/07 06:34:32;;;;;;;9.03;5.97;;;12.70;89.50;;;;;;5033531;28;20454;-43
2021/10/07 06:36:58;;;;;;;10.27;6.17;;;12.80;89.50;;;;;;5047242;28;20485;-44
2021/10/07 06:39:25;;;;;;;7.47;6.17;;;12.70;89.50;;;;;;5049913;28;20454;-44
2021/10/07 06:41:52;;;;;;;6.80;6.07;;;12.70;89.70;;;;;;5029507;28;20495;-44
2021/10/07 06:44:20;;;;;;;7.37;6.23;;;12.70;89.50;;;;;;5049450;28;20993;-44
2021/10/07 06:46:46;;;;;;;6.77;5.90;;;12.80;89.40;;;;;;5045212;28;20474;-44
2021/10/07 06:49:13;;;;;;;7.50;6.10;;;12.80;89.30;;;;;;5032366;28;20453;-44
2021/10/07 06:51:40;;;;;;;8.50;6.73;;;12.80;89.20;;;;;;5050146;28;20895;-44
2021/10/07 06:54:06;;;;;;;7.50;6.40;;;12.80;89.20;;;;;;5045936;28;20458;-44
2021/10/07 06:56:33;;;;;;;8.27;6.17;;;12.80;89.40;;;;;;5036191;28;20450;-44
2021/10/07 06:59:00;;;;;;;6.57;5.03;;;12.80;89.40;;;;;;5046623;28;20465;-44
2021/10/07 07:01:28;;;;;;;8.10;6.63;;;12.90;89.50;;;;;;5045441;28;20943;-44
2021/10/07 07:03:57;;;;;;;8.63;6.33;;;12.90;89.50;;;;;;5045871;28;20544;-44
2021/10/07 07:06:25;;;;;;;10.40;7.47;;;12.90;89.50;;;;;;5041070;28;20485;-44
2021/10/07 07:08:52;;;;;;;6.97;6.20;;;12.90;89.50;;;;;;5034802;28;20454;-44
2021/10/07 07:11:19;;;;;;;10.90;6.60;;;12.90;89.50;;;;;;5043900;28;20474;-44
2021/10/07 07:13:46;;;;;;;7.80;6.97;;;13.00;89.60;;;;;;5043448;28;20493;-44
2021/10/07 07:16:13;;;;;;;9.50;7.77;;;13.00;89.50;;;;;;5039134;28;20458;-44
2021/10/07 07:18:40;;;;;;;9.90;7.23;;;13.00;89.50;;;;;;5045262;28;20944;-44
2021/10/07 07:21:08;;;;;;;9.97;8.43;;;13.00;89.30;;;;;;5025123;28;20512;-44
2021/10/07 07:23:35;;;;;;;9.90;7.77;;;13.00;89.40;;;;;;5042336;28;20464;-44
2021/10/07 07:26:03;;;;;;;10.93;7.90;;;13.00;89.40;;;;;;5024740;28;20459;-44
2021/10/07 07:28:29;;;;;;;9.17;7.03;;;13.00;89.40;;;;;;5040818;28;20471;-44
2021/10/07 07:30:56;;;;;;;11.83;8.07;;;13.10;89.30;;;;;;5027102;28;20509;-44
2021/10/07 07:33:26;;;;;;;8.87;7.33;;;13.10;89.20;;;;;;5044949;28;20467;-44
2021/10/07 07:35:54;;;;;;;12.93;8.73;;;13.10;89.10;;;;;;5043764;28;20445;-44
2021/10/07 07:38:20;;;;;;;9.87;7.17;;;13.10;89.10;;;;;;5042779;28;20454;-44
2021/10/07 07:40:47;;;;;;;13.67;7.60;;;13.10;89.10;;;;;;5041522;28;20458;-44
2021/10/07 07:43:18;;;;;;;8.97;7.40;;;13.20;89.10;;;;;;5045411;28;20481;-44
2021/10/07 07:45:47;;;;;;;9.60;7.30;;;13.20;89.00;;;;;;5026026;28;20562;-44
2021/10/07 07:48:15;;;;;;;9.00;7.40;;;13.20;88.90;;;;;;5039811;28;20467;-44
2021/10/07 07:50:42;;;;;;;8.23;6.37;;;13.20;89.00;;;;;;5025436;28;20471;-44
2021/10/07 07:53:10;;;;;;;10.40;6.30;;;13.30;88.90;;;;;;5024393;28;21007;-44
2021/10/07 07:55:37;;;;;;;10.60;6.40;;;13.30;88.80;;;;;;5039748;28;20462;-44
2021/10/07 07:58:04;;;;;;;6.97;6.20;;;13.30;88.50;;;;;;5043974;28;20463;-44
2021/10/07 08:00:31;;;;;;;9.10;7.10;;;13.30;88.50;;;;;;5040266;28;20471;-44
2021/10/07 08:02:58;;;;;;;14.07;9.17;;;13.40;88.40;;;;;;5044676;28;20466;-44
2021/10/07 08:05:25;;;;;;;10.40;7.20;;;13.40;88.50;;;;;;5026132;28;20537;-44
2021/10/07 08:07:51;;;;;;;12.80;8.53;;;13.40;88.20;;;;;;5042039;28;20545;-44
2021/10/07 08:10:18;;;;;;;15.17;8.87;;;13.40;88.20;;;;;;5041234;28;20763;-44
2021/10/07 08:12:45;;;;;;;15.00;8.87;;;13.40;88.30;;;;;;5038606;28;21083;-44
2021/10/07 08:15:12;;;;;;;14.10;9.33;;;13.40;88.40;;;;;;5040958;28;20957;-44
2021/10/07 08:17:39;;;;;;;14.93;9.47;;;13.40;88.40;;;;;;5029055;28;20465;-44
2021/10/07 08:20:09;;;;;;;12.40;9.00;;;13.50;88.20;;;;;;5044080;28;20459;-45
2021/10/07 08:22:36;;;;;;;12.90;7.60;;;13.40;88.30;;;;;;5031350;28;20454;-44
2021/10/07 08:25:03;;;;;;;14.53;8.83;;;13.40;88.40;;;;;;5025841;28;20463;-44
2021/10/07 08:27:30;;;;;;;10.90;8.90;;;13.40;88.50;;;;;;5043402;28;20515;-44
2021/10/07 08:29:56;;;;;;;9.40;8.40;;;13.50;88.40;;;;;;5044008;28;20838;-44
2021/10/07 08:32:23;;;;;;;16.43;8.13;;;13.50;88.30;;;;;;5039562;28;20483;-44
2021/10/07 08:34:50;;;;;;;16.63;9.17;;;13.50;88.00;;;;;;5043309;28;20534;-44
2021/10/07 08:37:17;;;;;;;13.63;9.20;;;13.50;87.70;;;;;;5042714;28;20490;-44
2021/10/07 08:39:44;;;;;;;11.90;9.33;;;13.50;88.00;;;;;;5041373;28;20466;-44
2021/10/07 08:42:11;;;;;;;11.20;9.30;;;13.50;88.00;;;;;;5041187;28;20438;-44
2021/10/07 08:44:38;;;;;;;16.90;9.50;;;13.50;88.00;;;;;;5043537;28;20463;-44
2021/10/07 08:47:04;;;;;;;11.33;8.73;;;13.50;88.00;;;;;;5042697;28;20469;-44
2021/10/07 08:49:38;;;;;;;13.93;10.20;;;13.50;88.00;;;;;;5045948;28;20462;-44
2021/10/07 08:52:06;;;;;;;15.90;11.43;;;13.50;87.80;;;;;;5041924;28;21034;-44
2021/10/07 08:54:34;;;;;;;15.60;11.40;;;13.50;87.80;;;;;;5028187;28;20889;-44
2021/10/07 08:57:02;;;;;;;15.37;10.83;;;13.60;88.00;;;;;;5040927;28;20462;-44
2021/10/07 08:59:29;;;;;;;14.63;11.57;;;13.60;87.70;;;;;;5042137;28;20991;-44
2021/10/07 09:02:01;;;;;;;15.50;10.67;;;13.60;87.70;;;;;;5041413;28;20459;-43
2021/10/07 09:04:35;;;;;;;17.83;11.10;;;13.60;87.70;;;;;;5041393;28;20474;-43
2021/10/07 09:07:10;;;;;;;19.90;11.97;;;13.60;87.60;;;;;;5039372;28;20513;-43
2021/10/07 09:09:40;;;;;;;12.00;9.40;;;13.60;87.50;;;;;;5019811;28;20569;-43
2021/10/07 09:12:18;;;;;;;11.53;8.90;;;13.60;87.60;;;;;;5024091;28;20867;-43
2021/10/07 09:14:47;;;;;;;13.47;9.13;;;13.60;87.60;;;;;;5042567;28;20585;-44
2021/10/07 09:17:17;;;;;;;13.83;9.63;;;13.60;87.60;;;;;;5041328;28;20461;-44
2021/10/07 09:19:47;;;;;;;11.50;9.00;;;13.60;87.70;;;;;;5039275;28;21195;-45
2021/10/07 09:22:30;;;;;;;13.03;8.80;;;13.60;87.70;;;;;;5042838;28;20498;-44
2021/10/07 09:24:59;;;;;;;12.67;9.10;;;13.60;87.70;;;;;;5042872;28;20573;-44
2021/10/07 09:27:31;;;;;;;15.00;9.00;;;13.60;87.60;;;;;;5043265;28;20459;-44
2021/10/07 09:30:01;;;;;;;18.40;9.27;;;13.60;87.60;;;;;;5043956;28;20462;-44
2021/10/07 09:32:37;;;;;;;13.60;8.10;;;13.70;87.50;;;;;;5039503;28;20580;-44
2021/10/07 09:35:06;;;;;;;12.33;8.37;;;13.70;87.60;;;;;;5043456;28;20951;-44
2021/10/07 09:37:34;;;;;;;12.57;8.97;;;13.70;87.70;;;;;;5030335;28;20455;-44
2021/10/07 09:40:10;;;;;;;11.73;9.33;;;13.70;87.80;;;;;;5039691;28;20477;-44
2021/10/07 09:42:57;;;;;;;11.40;8.43;;;13.70;87.90;;;;;;5042838;28;20448;-44
2021/10/07 09:45:26;;;;;;;13.57;8.80;;;13.70;87.90;;;;;;5040967;28;20451;-44
2021/10/07 09:47:55;;;;;;;14.17;9.10;;;13.70;87.90;;;;;;5026811;28;21325;-44
2021/10/07 09:50:31;;;;;;;13.97;10.13;;;13.70;88.00;;;;;;5042937;28;20513;-44
2021/10/07 09:53:04;;;;;;;19.23;11.20;;;13.70;88.10;;;;;;5042407;28;20473;-44
2021/10/07 09:55:39;;;;;;;14.00;9.60;;;13.70;88.00;;;;;;5042498;28;20448;-44
2021/10/07 09:58:09;;;;;;;14.00;9.80;;;13.80;88.10;;;;;;5039150;28;20461;-44
2021/10/07 10:00:39;;;;;;;15.07;9.40;;;13.80;88.10;;;;;;5042361;28;20455;-44
2021/10/07 10:03:08;;;;;;;11.80;10.37;;;13.80;88.10;;;;;;5022024;28;21098;-44
2021/10/07 10:05:37;;;;;;;14.57;10.33;;;13.80;88.20;;;;;;5043590;28;20463;-44
2021/10/07 10:08:05;;;;;;;11.23;9.50;;;13.90;88.30;;;;;;5042791;28;20830;-44
2021/10/07 10:10:33;;;;;;;14.30;10.00;;;14.00;88.40;;;;;;5044142;28;20469;-45
2021/10/07 10:13:00;;;;;;;16.07;10.20;;;14.00;88.20;;;;;;5027420;28;20489;-44
2021/10/07 10:15:28;;;;;;;11.33;9.80;;;14.10;88.00;;;;;;5041727;28;20982;-44
2021/10/07 10:17:55;;;;;;;16.80;10.90;;;14.20;87.90;;;;;;5043673;28;20471;-44
2021/10/07 10:20:25;;;;;;;14.70;11.73;;;14.30;87.90;;;;;;5039709;28;20826;-44
2021/10/07 10:22:56;;;;;;;14.93;10.87;;;14.50;86.70;;;;;;5024416;28;20467;-44
2021/10/07 10:25:25;;;;;;;10.90;9.00;;;14.60;86.50;;;;;;5041956;28;20803;-44
2021/10/07 10:27:54;;;;;;;12.57;10.50;;;14.70;86.00;;;;;;5040845;28;20485;-44
2021/10/07 10:30:44;;;;;;;12.37;9.80;;;14.70;85.60;;;;;;5043688;28;20830;-44
2021/10/07 10:33:37;;;;;;;15.87;10.03;;;14.90;84.90;;;;;;5037651;28;20478;-44
2021/10/07 10:36:23;;;;;;;12.80;9.30;;;14.90;85.30;;;;;;5036523;28;20458;-44
2021/10/07 10:39:24;;;;;;;15.27;11.40;;;15.20;83.70;;;;;;5033861;28;20843;-44
2021/10/07 10:41:58;;;;;;;11.20;9.47;;;15.40;82.30;;;;;;5035103;28;20592;-44
2021/10/07 10:44:27;;;;;;;10.17;9.10;;;15.50;82.10;;;;;;5047664;28;20939;-44
2021/10/07 10:47:07;;;;;;;13.43;10.00;;;15.60;80.10;;;;;;5028298;28;20861;-44
2021/10/07 10:49:51;;;;;;;11.07;8.47;;;15.70;80.80;;;;;;5044538;28;20465;-44
2021/10/07 10:52:35;;;;;;;9.17;8.23;;;15.60;80.80;;;;;;5044471;28;20486;-44
2021/10/07 10:55:14;;;;;;;13.53;8.90;;;15.50;81.00;;;;;;5045291;28;20462;-44
2021/10/07 10:57:50;;;;;;;8.70;7.40;;;15.50;81.40;;;;;;5044008;28;20465;-44
2021/10/07 11:00:17;;;;;;;10.57;8.57;;;15.50;81.00;;;;;;5030431;28;20442;-44
2021/10/07 11:02:50;;;;;;;15.00;9.87;;;15.50;80.90;;;;;;5045179;28;20465;-44
2021/10/07 11:05:20;;;;;;;13.10;9.70;;;15.50;81.40;;;;;;5046615;28;20490;-44
2021/10/07 11:08:21;;;;;;;12.40;9.23;;;15.50;81.70;;;;;;5027210;28;20481;-44
2021/10/07 11:11:04;;;;;;;12.07;8.70;;;15.50;82.10;;;;;;5040936;28;20494;-44
2021/10/07 11:13:33;;;;;;;10.03;8.17;;;15.40;82.00;;;;;;5043691;28;20577;-45
2021/10/07 11:16:06;;;;;;;9.03;7.87;;;15.50;81.10;;;;;;5042359;28;20563;-44
2021/10/07 11:18:38;;;;;;;12.43;8.57;;;15.50;80.90;;;;;;5043752;28;20451;-45
2021/10/07 11:21:17;;;;;;;10.93;7.87;;;15.40;80.90;;;;;;5045463;28;20457;-44
2021/10/07 11:23:50;;;;;;;12.87;8.87;;;15.40;81.30;;;;;;5043137;28;20501;-44
2021/10/07 11:26:18;;;;;;;13.90;9.47;;;15.40;81.30;;;;;;5033292;28;20944;-44
2021/10/07 11:28:47;;;;;;;13.57;9.23;;;15.30;81.20;;;;;;5048145;28;20450;-44
2021/10/07 11:31:21;;;;;;;8.77;7.87;;;15.30;81.40;;;;;;5048111;28;20484;-44
2021/10/07 11:33:51;;;;;;;11.80;9.37;;;15.30;81.60;;;;;;5043813;28;20490;-44
2021/10/07 11:36:20;;;;;;;12.93;8.97;;;15.30;81.60;;;;;;5044380;28;20486;-44
2021/10/07 11:38:48;;;;;;;14.73;9.30;;;15.30;81.50;;;;;;5047055;28;20463;-44
2021/10/07 11:41:23;;;;;;;10.40;8.43;;;15.30;81.60;;;;;;5045013;28;20462;-44
2021/10/07 11:43:51;;;;;;;12.97;9.43;;;15.40;80.60;;;;;;5042138;28;20454;-44
2021/10/07 11:46:19;;;;;;;13.00;9.10;;;15.50;80.50;;;;;;5041718;28;20473;-45
2021/10/07 11:48:49;;;;;;;7.67;6.40;;;15.50;80.20;;;;;;5043965;28;20465;-45
2021/10/07 11:51:21;;;;;;;8.07;6.80;;;15.50;79.30;;;;;;5048609;28;20951;-44
2021/10/07 11:53:54;;;;;;;8.03;7.20;;;15.50;78.70;;;;;;5030634;28;20486;-45
2021/10/07 11:56:24;;;;;;;9.20;6.50;;;15.60;78.10;;;;;;5045229;28;20455;-44
2021/10/07 11:58:58;;;;;;;9.90;7.47;;;15.60;78.30;;;;;;5045671;28;20500;-44
2021/10/07 12:01:29;;;;;;;7.93;6.87;;;15.50;77.90;;;;;;5040213;28;20458;-44
2021/10/07 12:03:59;;;;;;;9.00;6.90;;;15.50;77.70;;;;;;5041699;28;20480;-44
2021/10/07 12:06:27;;;;;;;8.93;7.10;;;15.50;77.90;;;;;;5044684;28;20972;-45
2021/10/07 12:08:54;;;;;;;10.30;7.17;;;15.60;78.10;;;;;;5041079;28;20481;-44
2021/10/07 12:11:26;;;;;;;8.07;6.33;;;15.60;78.10;;;;;;5027033;28;20839;-44
2021/10/07 12:13:55;;;;;;;8.10;6.80;;;15.70;77.80;;;;;;5026780;28;20491;-44
2021/10/07 12:16:28;;;;;;;8.93;6.40;;;15.70;77.60;;;;;;5027127;28;20459;-44
2021/10/07 12:19:03;;;;;;;8.30;6.73;;;15.80;77.40;;;;;;5023432;28;20845;-44
2021/10/07 12:21:41;;;;;;;8.00;5.70;;;15.80;76.60;;;;;;5041884;28;20831;-44
2021/10/07 12:24:12;;;;;;;8.10;6.07;;;15.80;76.20;;;;;;5023802;28;20550;-44
2021/10/07 12:26:49;;;;;;;9.53;7.60;;;15.90;76.10;;;;;;5043769;28;20795;-45
2021/10/07 12:29:31;;;;;;;8.50;7.40;;;16.00;75.90;;;;;;5042829;28;20463;-44
2021/10/07 12:32:06;;;;;;;8.83;6.00;;;16.10;75.90;;;;;;5040496;28;20991;-44
2021/10/07 12:34:39;;;;;;;8.50;7.37;;;16.20;75.20;;;;;;5039647;28;21091;-45
2021/10/07 12:37:08;;;;;;;11.70;7.10;;;16.20;74.20;;;;;;5046416;28;20447;-45
2021/10/07 12:39:46;;;;;;;7.57;5.53;;;16.30;74.00;;;;;;5023084;28;20459;-44
2021/10/07 12:42:17;;;;;;;4.10;3.70;;;16.30;74.50;;;;;;5045415;28;20957;-44
2021/10/07 12:44:50;;;;;;;5.80;3.97;;;16.40;73.20;;;;;;5044118;28;20541;-45
2021/10/07 12:47:23;;;;;;;5.67;5.10;;;16.40;72.40;;;;;;5042073;28;20986;-44
2021/10/07 12:49:52;;;;;;;4.63;4.00;;;16.50;72.80;;;;;;5037790;28;20455;-44
2021/10/07 12:52:37;;;;;;;3.80;3.50;;;16.50;72.80;;;;;;5038648;28;20466;-44
2021/10/07 12:55:13;;;;;;;4.90;3.87;;;16.40;72.40;;;;;;5041837;28;20456;-45